Tazaa, Morocco

7:34 AM WET on February 08, 2016 (GMT +0000)
Saiss | | Change Station
CLOSE
Current Station
Airport
Location: Fes-Sais,
Elevation: 1900 ft
Nearby Weather Stations

Elev 1900 ft 33.93 °N, 4.97 °W | Updated 34 minutes ago

Scattered Clouds
Scattered Clouds
46 °F
Feels Like 42 °F
N
8
Wind Variable Wind from South

Today
High -- | Low -- °F
--% Chance of Precip.
Yesterday
High -- | Low -- °F
Precip. -- in
Pressure 30.45 in
Visibility 5.6 miles
Clouds Scattered Clouds 1600 ft
Windchill 42 °F
Dew Point 45 °F
Humidity 93%
Rainfall 0.00 in
Snow Depth Not available.
7:08 AM 5:52 PM
Waning Crescent, 0% visible
METAR GMFF 080700Z 18007KT 9000 SCT016 08/07 Q1031 NOSIG
Pressure 30.45 in
Visibility 5.6 miles
Clouds Scattered Clouds 1600 ft
Windchill 42 °F
Dew Point 45 °F
Humidity 93%
Rainfall 0.00 in
Snow Depth Not available.
7:08 AM 5:52 PM
Waning Crescent, 0% visible
METAR GMFF 080700Z 18007KT 9000 SCT016 08/07 Q1031 NOSIG

10-Day Weather Forecast

No radar image for this location.
×

Almanac

Astronomy

Feb. 08, 2016 Rise Set
Actual Time
Civil Twilight
Nautical Twilight
Astronomical Twilight
Moon
Length of Visible Light
Length of Day
Tomorrow will be .
, % of the Moon is Illuminated

Today's Extremes

Country Highs Country Lows

Community

WunderPhotos

Upload Photos

1,891,394 photos uploaded!

WunderBlog® & News

Nearby

Air Quality

  Air Quality AQ Index Pollutant
Not available.

Snow Depth

Station Depth Elevation

Earthquake Activity

City Distance Mag. Time & Date
Minimum magnitude displayed is 2.5.

Coastal Water Temperatures

Place Temperature

Stations

Nearby Weather Stations

Station Location Temp. Windchill Dew Point Humidity Wind Precip. Elev Updated Type